Mary Rose Brusco — WDE2412 — position and weather

sailwx.info

Track history (hours):
 
Tides and Currents Weather Stations Pressure Air Temp Water Temp Dewpoint Dewpoint Depression Visibility Wind Speed Wind Dir Waves Ship Positions

Mary Rose Brusco

Owner: Brusco Tug & Barge, Inc., Longview, WA. More information available from US FCC via Universal Licensing System and Coast Guard Vessel Documentation Center.

Last reported at 2015-May-01 20:08 UTC. Time now 2015-May-05 00:13 UTC.
Position N 47°59' W 122°13'.

Length 20 m; draft 3 m.

Type: Towing. MMSI: 367324840.

Date/timePositionNaut miles runAvg speedWind from/ knotsBaromVisibWave heightAir tempDewpointWater temp
2015-May-01 20:08N 47°59' W 122°13'2 4.2
2015-May-01 19:33N 47°58' W 122°17'2 2.3
2015-May-01 18:33N 47°59' W 122°13'0 0.0
2015-May-01 14:33N 47°59' W 122°13'1 1.1
2015-May-01 13:30N 47°58' W 122°15'1 0.0
2015-Apr-29 14:33N 47°59' W 122°13'1 0.6
2015-Apr-29 13:23N 47°59' W 122°14'2 0.1
2015-Apr-28 14:33N 47°58' W 122°16'2 2.0
2015-Apr-28 13:33N 47°59' W 122°13'0 0.2
2015-Apr-28 12:33N 47°59' W 122°13'0 0.0
2015-Apr-28 11:34N 47°59' W 122°13'0 0.0
2015-Apr-28 10:33N 47°59' W 122°13'0 0.0
2015-Apr-28 09:34N 47°59' W 122°13'0 0.0
2015-Apr-28 08:34N 47°59' W 122°13'0 0.0
2015-Apr-28 07:34N 47°59' W 122°13'0 0.0
2015-Apr-28 06:33N 47°59' W 122°13'0 0.0
2015-Apr-28 05:33N 47°59' W 122°13'0 0.0
2015-Apr-28 04:33N 47°59' W 122°13'0 0.0
2015-Apr-28 03:33N 47°59' W 122°13'0 0.0
2015-Apr-28 02:34N 47°59' W 122°13'0 0.0
2015-Apr-28 01:34N 47°59' W 122°13'0 0.0
2015-Apr-28 00:34N 47°59' W 122°13'0 0.0
2015-Apr-27 23:33N 47°59' W 122°13'0 0.0
2015-Apr-27 22:34N 47°59' W 122°13'0 0.0
2015-Apr-27 21:33N 47°59' W 122°13'0 0.0
2015-Apr-27 20:34N 47°59' W 122°13'0 0.0
2015-Apr-27 19:34N 47°59' W 122°13'0 0.0
2015-Apr-27 18:33N 47°59' W 122°13'0 0.0
2015-Apr-27 17:33N 47°59' W 122°13'0 0.0
2015-Apr-27 16:33N 47°59' W 122°13'0 0.0
2015-Apr-27 15:33N 47°59' W 122°13'0 0.0
2015-Apr-27 14:34N 47°59' W 122°13'0 0.0
2015-Apr-27 13:34N 47°59' W 122°13'0 0.0
2015-Apr-27 12:33N 47°59' W 122°13'0 0.0
2015-Apr-27 11:34N 47°59' W 122°13'0 0.0
2015-Apr-27 10:34N 47°59' W 122°13'0 0.0
2015-Apr-27 09:33N 47°59' W 122°13'0 0.0
2015-Apr-27 08:34N 47°59' W 122°13'0 0.0
2015-Apr-27 07:34N 47°59' W 122°13'0 0.0
2015-Apr-27 06:34N 47°59' W 122°13'0 0.0
2015-Apr-27 05:33N 47°59' W 122°13'0 0.0
2015-Apr-27 04:34N 47°59' W 122°13'0 0.0
2015-Apr-27 03:33N 47°59' W 122°13'0 0.0
2015-Apr-27 02:34N 47°59' W 122°13'0 0.0
2015-Apr-27 01:34N 47°59' W 122°13'0 0.0
2015-Apr-27 00:34N 47°59' W 122°13'0 0.0
2015-Apr-26 23:33N 47°59' W 122°13'0 0.0
2015-Apr-26 22:33N 47°59' W 122°13'0 0.0
2015-Apr-26 21:33N 47°59' W 122°13'0 0.0
2015-Apr-26 20:33N 47°59' W 122°13'0 0.0
2015-Apr-26 19:33N 47°59' W 122°13'0 0.0
2015-Apr-26 18:34N 47°59' W 122°13'0 0.0
2015-Apr-26 17:33N 47°59' W 122°13'0 0.0
2015-Apr-26 16:33N 47°59' W 122°13'0 0.0
2015-Apr-26 15:33N 47°59' W 122°13'0 0.0
2015-Apr-26 14:34N 47°59' W 122°13'0 0.0
2015-Apr-26 13:34N 47°59' W 122°13'0 0.0
2015-Apr-26 12:34N 47°59' W 122°13'0 0.0
2015-Apr-26 11:34N 47°59' W 122°13'0 0.0
2015-Apr-26 10:34N 47°59' W 122°13'0 0.0
2015-Apr-26 09:33N 47°59' W 122°13'0 0.0
2015-Apr-26 08:34N 47°59' W 122°13'0 0.0
2015-Apr-26 07:33N 47°59' W 122°13'0 0.0
2015-Apr-26 06:33N 47°59' W 122°13'0 0.0
2015-Apr-26 05:33N 47°59' W 122°13'0 0.0
2015-Apr-26 04:34N 47°59' W 122°13'0 0.0
2015-Apr-26 03:34N 47°59' W 122°13'0 0.0
2015-Apr-26 02:34N 47°59' W 122°13'0 0.0
2015-Apr-26 01:34N 47°59' W 122°13'0 0.0
2015-Apr-26 00:33N 47°59' W 122°13'0 0.0
2015-Apr-25 23:34N 47°59' W 122°13'0 0.0
2015-Apr-25 22:34N 47°59' W 122°13'0 0.0
2015-Apr-25 21:33N 47°59' W 122°13'0 0.0
2015-Apr-25 20:33N 47°59' W 122°13'0 0.0
2015-Apr-25 19:33N 47°59' W 122°13'0 0.0
2015-Apr-25 18:34N 47°59' W 122°13'0 0.0
2015-Apr-25 17:33N 47°59' W 122°13'0 0.0
2015-Apr-25 16:34N 47°59' W 122°13'0 0.0
2015-Apr-25 15:34N 47°59' W 122°13'0 0.0
2015-Apr-25 14:34N 47°59' W 122°13'0 0.0
2015-Apr-25 13:33N 47°59' W 122°13'0 0.0
2015-Apr-25 12:33N 47°59' W 122°13'0 0.0
2015-Apr-25 11:33N 47°59' W 122°13'0 0.0
2015-Apr-25 10:33N 47°59' W 122°13'0 0.0
2015-Apr-25 09:34N 47°59' W 122°13'0 0.0
2015-Apr-25 08:33N 47°59' W 122°13'0 0.0
2015-Apr-25 07:34N 47°59' W 122°13'0 0.0
2015-Apr-25 06:34N 47°59' W 122°13'0 0.0
2015-Apr-25 05:33N 47°59' W 122°13'0 0.0
2015-Apr-25 04:34N 47°59' W 122°13'0 0.0
2015-Apr-25 03:33N 47°59' W 122°13'0 0.0
2015-Apr-25 02:34N 47°59' W 122°13'0 0.0
2015-Apr-25 01:34N 47°59' W 122°13'0 0.0
2015-Apr-25 00:33N 47°59' W 122°13'0 0.0
2015-Apr-24 23:33N 47°59' W 122°13'0 0.0
2015-Apr-24 22:34N 47°59' W 122°13'0 0.0
2015-Apr-24 21:33N 47°59' W 122°13'0 0.0
2015-Apr-24 20:34N 47°59' W 122°13'0 0.0
2015-Apr-24 19:34N 47°59' W 122°13'0 0.0
2015-Apr-24 18:34N 47°59' W 122°13'0 0.1
2015-Apr-24 14:33N 47°59' W 122°14'0 0.4
2015-Apr-24 13:33N 47°59' W 122°14'0 0.0
2015-Apr-23 14:33N 47°59' W 122°14'1 0.6
2015-Apr-23 13:32N 47°59' W 122°14'0 0.0
2015-Apr-22 14:33N 47°59' W 122°13'2 2.0
2015-Apr-22 13:33N 47°58' W 122°16'2 1.9
2015-Apr-22 12:30N 47°59' W 122°13'0 0.0
2015-Apr-22 11:32N 47°59' W 122°13'0 0.0
2015-Apr-22 10:23N 47°59' W 122°13'0 0.0
2015-Apr-22 09:33N 47°59' W 122°13'0 0.0
2015-Apr-22 08:33N 47°59' W 122°13'0 0.0
2015-Apr-22 07:33N 47°59' W 122°13'0 0.0
2015-Apr-22 06:33N 47°59' W 122°13'0 0.0
2015-Apr-22 05:33N 47°59' W 122°13'0 0.0
2015-Apr-22 04:33N 47°59' W 122°13'0 0.0
2015-Apr-22 03:33N 47°59' W 122°13'0 0.0
2015-Apr-22 02:32N 47°59' W 122°13'0 0.0
2015-Apr-22 01:30N 47°59' W 122°13'0 0.0
2015-Apr-22 00:33N 47°59' W 122°13'0 0.0
2015-Apr-21 23:33N 47°59' W 122°13'  
Track history (hours):
 
Tides and Currents Weather Stations Pressure Air Temp Water Temp Dewpoint Dewpoint Depression Visibility Wind Speed Wind Dir Waves Ship Positions

Mary Rose Brusco

Owner: Brusco Tug & Barge, Inc., Longview, WA. More information available from US FCC via Universal Licensing System and Coast Guard Vessel Documentation Center.

Last reported at 2015-May-01 20:08 UTC. Time now 2015-May-05 00:13 UTC.
Position N 47°59' W 122°13'.

Length 20 m; draft 3 m.

Type: Towing. MMSI: 367324840.

Date/timePositionNaut miles runAvg speedWind from/ knotsBaromVisibWave heightAir tempDewpointWater temp
2015-May-01 20:08N 47°59' W 122°13'2 4.2
2015-May-01 19:33N 47°58' W 122°17'2 2.3
2015-May-01 18:33N 47°59' W 122°13'0 0.0
2015-May-01 14:33N 47°59' W 122°13'1 1.1
2015-May-01 13:30N 47°58' W 122°15'1 0.0
2015-Apr-29 14:33N 47°59' W 122°13'1 0.6
2015-Apr-29 13:23N 47°59' W 122°14'2 0.1
2015-Apr-28 14:33N 47°58' W 122°16'2 2.0
2015-Apr-28 13:33N 47°59' W 122°13'0 0.2
2015-Apr-28 12:33N 47°59' W 122°13'0 0.0
2015-Apr-28 11:34N 47°59' W 122°13'0 0.0
2015-Apr-28 10:33N 47°59' W 122°13'0 0.0
2015-Apr-28 09:34N 47°59' W 122°13'0 0.0
2015-Apr-28 08:34N 47°59' W 122°13'0 0.0
2015-Apr-28 07:34N 47°59' W 122°13'0 0.0
2015-Apr-28 06:33N 47°59' W 122°13'0 0.0
2015-Apr-28 05:33N 47°59' W 122°13'0 0.0
2015-Apr-28 04:33N 47°59' W 122°13'0 0.0
2015-Apr-28 03:33N 47°59' W 122°13'0 0.0
2015-Apr-28 02:34N 47°59' W 122°13'0 0.0
2015-Apr-28 01:34N 47°59' W 122°13'0 0.0
2015-Apr-28 00:34N 47°59' W 122°13'0 0.0
2015-Apr-27 23:33N 47°59' W 122°13'0 0.0
2015-Apr-27 22:34N 47°59' W 122°13'0 0.0
2015-Apr-27 21:33N 47°59' W 122°13'0 0.0
2015-Apr-27 20:34N 47°59' W 122°13'0 0.0
2015-Apr-27 19:34N 47°59' W 122°13'0 0.0
2015-Apr-27 18:33N 47°59' W 122°13'0 0.0
2015-Apr-27 17:33N 47°59' W 122°13'0 0.0
2015-Apr-27 16:33N 47°59' W 122°13'0 0.0
2015-Apr-27 15:33N 47°59' W 122°13'0 0.0
2015-Apr-27 14:34N 47°59' W 122°13'0 0.0
2015-Apr-27 13:34N 47°59' W 122°13'0 0.0
2015-Apr-27 12:33N 47°59' W 122°13'0 0.0
2015-Apr-27 11:34N 47°59' W 122°13'0 0.0
2015-Apr-27 10:34N 47°59' W 122°13'0 0.0
2015-Apr-27 09:33N 47°59' W 122°13'0 0.0
2015-Apr-27 08:34N 47°59' W 122°13'0 0.0
2015-Apr-27 07:34N 47°59' W 122°13'0 0.0
2015-Apr-27 06:34N 47°59' W 122°13'0 0.0
2015-Apr-27 05:33N 47°59' W 122°13'0 0.0
2015-Apr-27 04:34N 47°59' W 122°13'0 0.0
2015-Apr-27 03:33N 47°59' W 122°13'0 0.0
2015-Apr-27 02:34N 47°59' W 122°13'0 0.0
2015-Apr-27 01:34N 47°59' W 122°13'0 0.0
2015-Apr-27 00:34N 47°59' W 122°13'0 0.0
2015-Apr-26 23:33N 47°59' W 122°13'0 0.0
2015-Apr-26 22:33N 47°59' W 122°13'0 0.0
2015-Apr-26 21:33N 47°59' W 122°13'0 0.0
2015-Apr-26 20:33N 47°59' W 122°13'0 0.0
2015-Apr-26 19:33N 47°59' W 122°13'0 0.0
2015-Apr-26 18:34N 47°59' W 122°13'0 0.0
2015-Apr-26 17:33N 47°59' W 122°13'0 0.0
2015-Apr-26 16:33N 47°59' W 122°13'0 0.0
2015-Apr-26 15:33N 47°59' W 122°13'0 0.0
2015-Apr-26 14:34N 47°59' W 122°13'0 0.0
2015-Apr-26 13:34N 47°59' W 122°13'0 0.0
2015-Apr-26 12:34N 47°59' W 122°13'0 0.0
2015-Apr-26 11:34N 47°59' W 122°13'0 0.0
2015-Apr-26 10:34N 47°59' W 122°13'0 0.0
2015-Apr-26 09:33N 47°59' W 122°13'0 0.0
2015-Apr-26 08:34N 47°59' W 122°13'0 0.0
2015-Apr-26 07:33N 47°59' W 122°13'0 0.0
2015-Apr-26 06:33N 47°59' W 122°13'0 0.0
2015-Apr-26 05:33N 47°59' W 122°13'0 0.0
2015-Apr-26 04:34N 47°59' W 122°13'0 0.0
2015-Apr-26 03:34N 47°59' W 122°13'0 0.0
2015-Apr-26 02:34N 47°59' W 122°13'0 0.0
2015-Apr-26 01:34N 47°59' W 122°13'0 0.0
2015-Apr-26 00:33N 47°59' W 122°13'0 0.0
2015-Apr-25 23:34N 47°59' W 122°13'0 0.0
2015-Apr-25 22:34N 47°59' W 122°13'0 0.0
2015-Apr-25 21:33N 47°59' W 122°13'0 0.0
2015-Apr-25 20:33N 47°59' W 122°13'0 0.0
2015-Apr-25 19:33N 47°59' W 122°13'0 0.0
2015-Apr-25 18:34N 47°59' W 122°13'0 0.0
2015-Apr-25 17:33N 47°59' W 122°13'0 0.0
2015-Apr-25 16:34N 47°59' W 122°13'0 0.0
2015-Apr-25 15:34N 47°59' W 122°13'0 0.0
2015-Apr-25 14:34N 47°59' W 122°13'0 0.0
2015-Apr-25 13:33N 47°59' W 122°13'0 0.0
2015-Apr-25 12:33N 47°59' W 122°13'0 0.0
2015-Apr-25 11:33N 47°59' W 122°13'0 0.0
2015-Apr-25 10:33N 47°59' W 122°13'0 0.0
2015-Apr-25 09:34N 47°59' W 122°13'0 0.0
2015-Apr-25 08:33N 47°59' W 122°13'0 0.0
2015-Apr-25 07:34N 47°59' W 122°13'0 0.0
2015-Apr-25 06:34N 47°59' W 122°13'0 0.0
2015-Apr-25 05:33N 47°59' W 122°13'0 0.0
2015-Apr-25 04:34N 47°59' W 122°13'0 0.0
2015-Apr-25 03:33N 47°59' W 122°13'0 0.0
2015-Apr-25 02:34N 47°59' W 122°13'0 0.0
2015-Apr-25 01:34N 47°59' W 122°13'0 0.0
2015-Apr-25 00:33N 47°59' W 122°13'0 0.0
2015-Apr-24 23:33N 47°59' W 122°13'0 0.0
2015-Apr-24 22:34N 47°59' W 122°13'0 0.0
2015-Apr-24 21:33N 47°59' W 122°13'0 0.0
2015-Apr-24 20:34N 47°59' W 122°13'0 0.0
2015-Apr-24 19:34N 47°59' W 122°13'0 0.0
2015-Apr-24 18:34N 47°59' W 122°13'0 0.1
2015-Apr-24 14:33N 47°59' W 122°14'0 0.4
2015-Apr-24 13:33N 47°59' W 122°14'0 0.0
2015-Apr-23 14:33N 47°59' W 122°14'1 0.6
2015-Apr-23 13:32N 47°59' W 122°14'0 0.0
2015-Apr-22 14:33N 47°59' W 122°13'2 2.0
2015-Apr-22 13:33N 47°58' W 122°16'2 1.9
2015-Apr-22 12:30N 47°59' W 122°13'0 0.0
2015-Apr-22 11:32N 47°59' W 122°13'0 0.0
2015-Apr-22 10:23N 47°59' W 122°13'0 0.0
2015-Apr-22 09:33N 47°59' W 122°13'0 0.0
2015-Apr-22 08:33N 47°59' W 122°13'0 0.0
2015-Apr-22 07:33N 47°59' W 122°13'0 0.0
2015-Apr-22 06:33N 47°59' W 122°13'0 0.0
2015-Apr-22 05:33N 47°59' W 122°13'0 0.0
2015-Apr-22 04:33N 47°59' W 122°13'0 0.0
2015-Apr-22 03:33N 47°59' W 122°13'0 0.0
2015-Apr-22 02:32N 47°59' W 122°13'0 0.0
2015-Apr-22 01:30N 47°59' W 122°13'0 0.0
2015-Apr-22 00:33N 47°59' W 122°13'0 0.0
2015-Apr-21 23:33N 47°59' W 122°13'  

Dump ship's entire track history